sensor_id;sensor_type;location;lat;lon;timestamp;P1;durP1;ratioP1;P2;durP2;ratioP2
22904;SDS011;11619;50.140;8.518;2022-08-19T00:01:43;13.23;;;11.93;;
22904;SDS011;11619;50.140;8.518;2022-08-19T00:04:18;11.98;;;10.88;;
22904;SDS011;11619;50.140;8.518;2022-08-19T00:06:48;13.55;;;12.20;;
22904;SDS011;11619;50.140;8.518;2022-08-19T00:09:16;14.23;;;12.82;;
22904;SDS011;11619;50.140;8.518;2022-08-19T00:11:44;13.68;;;12.43;;
22904;SDS011;11619;50.140;8.518;2022-08-19T00:14:12;12.68;;;11.38;;
22904;SDS011;11619;50.140;8.518;2022-08-19T00:16:41;13.75;;;12.38;;
22904;SDS011;11619;50.140;8.518;2022-08-19T00:19:09;13.95;;;12.50;;
22904;SDS011;11619;50.140;8.518;2022-08-19T00:21:36;15.95;;;12.48;;
22904;SDS011;11619;50.140;8.518;2022-08-19T00:24:05;11.85;;;10.65;;
22904;SDS011;11619;50.140;8.518;2022-08-19T00:26:35;13.25;;;12.05;;
22904;SDS011;11619;50.140;8.518;2022-08-19T00:29:04;12.48;;;11.27;;
22904;SDS011;11619;50.140;8.518;2022-08-19T00:31:30;12.13;;;10.93;;
22904;SDS011;11619;50.140;8.518;2022-08-19T00:34:00;13.23;;;11.68;;
22904;SDS011;11619;50.140;8.518;2022-08-19T00:36:26;10.93;;;9.88;;
22904;SDS011;11619;50.140;8.518;2022-08-19T00:38:54;11.75;;;10.55;;
22904;SDS011;11619;50.140;8.518;2022-08-19T00:41:21;13.15;;;11.00;;
22904;SDS011;11619;50.140;8.518;2022-08-19T00:44:09;12.05;;;10.95;;
22904;SDS011;11619;50.140;8.518;2022-08-19T00:46:39;13.93;;;10.88;;
22904;SDS011;11619;50.140;8.518;2022-08-19T00:51:47;10.05;;;8.98;;
22904;SDS011;11619;50.140;8.518;2022-08-19T00:54:15;10.18;;;9.23;;
22904;SDS011;11619;50.140;8.518;2022-08-19T00:56:42;11.85;;;10.85;;
22904;SDS011;11619;50.140;8.518;2022-08-19T00:59:09;10.00;;;9.00;;
22904;SDS011;11619;50.140;8.518;2022-08-19T01:01:42;9.88;;;8.98;;
22904;SDS011;11619;50.140;8.518;2022-08-19T01:04:09;10.10;;;9.20;;
22904;SDS011;11619;50.140;8.518;2022-08-19T01:06:37;9.90;;;9.00;;
22904;SDS011;11619;50.140;8.518;2022-08-19T01:09:04;8.38;;;7.68;;
22904;SDS011;11619;50.140;8.518;2022-08-19T01:11:31;8.80;;;8.00;;
22904;SDS011;11619;50.140;8.518;2022-08-19T01:14:03;10.05;;;9.13;;
22904;SDS011;11619;50.140;8.518;2022-08-19T01:16:29;9.15;;;8.25;;
22904;SDS011;11619;50.140;8.518;2022-08-19T01:18:56;9.93;;;8.25;;
22904;SDS011;11619;50.140;8.518;2022-08-19T01:21:31;8.93;;;8.13;;
22904;SDS011;11619;50.140;8.518;2022-08-19T01:24:00;9.07;;;8.18;;
22904;SDS011;11619;50.140;8.518;2022-08-19T01:26:26;9.10;;;8.20;;
22904;SDS011;11619;50.140;8.518;2022-08-19T01:28:54;9.32;;;8.43;;
22904;SDS011;11619;50.140;8.518;2022-08-19T01:31:27;8.57;;;7.82;;
22904;SDS011;11619;50.140;8.518;2022-08-19T01:33:58;8.27;;;7.47;;
22904;SDS011;11619;50.140;8.518;2022-08-19T01:36:32;9.60;;;8.50;;
22904;SDS011;11619;50.140;8.518;2022-08-19T01:39:04;8.77;;;8.07;;
22904;SDS011;11619;50.140;8.518;2022-08-19T01:41:32;8.43;;;7.63;;
22904;SDS011;11619;50.140;8.518;2022-08-19T01:43:59;9.68;;;8.68;;
22904;SDS011;11619;50.140;8.518;2022-08-19T01:46:44;8.52;;;7.70;;
22904;SDS011;11619;50.140;8.518;2022-08-19T01:49:10;9.85;;;8.00;;
22904;SDS011;11619;50.140;8.518;2022-08-19T01:51:37;9.23;;;8.32;;
22904;SDS011;11619;50.140;8.518;2022-08-19T01:54:06;9.98;;;8.98;;
22904;SDS011;11619;50.140;8.518;2022-08-19T01:56:33;10.05;;;8.55;;
22904;SDS011;11619;50.140;8.518;2022-08-19T01:59:02;9.95;;;8.90;;
22904;SDS011;11619;50.140;8.518;2022-08-19T02:01:31;8.75;;;7.80;;
22904;SDS011;11619;50.140;8.518;2022-08-19T02:03:58;10.43;;;7.95;;
22904;SDS011;11619;50.140;8.518;2022-08-19T02:06:27;10.15;;;7.88;;
22904;SDS011;11619;50.140;8.518;2022-08-19T02:08:54;10.27;;;7.70;;
22904;SDS011;11619;50.140;8.518;2022-08-19T02:11:32;9.27;;;8.35;;
22904;SDS011;11619;50.140;8.518;2022-08-19T02:14:02;10.52;;;7.70;;
22904;SDS011;11619;50.140;8.518;2022-08-19T02:16:31;7.68;;;6.78;;
22904;SDS011;11619;50.140;8.518;2022-08-19T02:18:58;8.57;;;7.75;;
22904;SDS011;11619;50.140;8.518;2022-08-19T02:21:28;7.50;;;6.80;;
22904;SDS011;11619;50.140;8.518;2022-08-19T02:23:55;8.48;;;7.68;;
22904;SDS011;11619;50.140;8.518;2022-08-19T02:26:22;8.35;;;6.40;;
22904;SDS011;11619;50.140;8.518;2022-08-19T02:28:49;7.45;;;6.65;;
22904;SDS011;11619;50.140;8.518;2022-08-19T02:31:17;8.70;;;7.70;;
22904;SDS011;11619;50.140;8.518;2022-08-19T02:33:45;9.48;;;8.57;;
22904;SDS011;11619;50.140;8.518;2022-08-19T02:36:12;10.52;;;7.13;;
22904;SDS011;11619;50.140;8.518;2022-08-19T02:38:40;8.30;;;6.93;;
22904;SDS011;11619;50.140;8.518;2022-08-19T02:41:15;11.10;;;7.00;;
22904;SDS011;11619;50.140;8.518;2022-08-19T02:43:52;8.82;;;7.88;;
22904;SDS011;11619;50.140;8.518;2022-08-19T02:46:39;9.18;;;7.30;;
22904;SDS011;11619;50.140;8.518;2022-08-19T02:49:06;7.80;;;7.05;;
22904;SDS011;11619;50.140;8.518;2022-08-19T02:51:37;7.30;;;6.70;;
22904;SDS011;11619;50.140;8.518;2022-08-19T02:54:07;9.48;;;7.45;;
22904;SDS011;11619;50.140;8.518;2022-08-19T02:56:35;8.18;;;6.75;;
22904;SDS011;11619;50.140;8.518;2022-08-19T02:59:03;12.07;;;7.60;;
22904;SDS011;11619;50.140;8.518;2022-08-19T03:01:36;8.90;;;7.60;;
22904;SDS011;11619;50.140;8.518;2022-08-19T03:04:03;7.80;;;6.90;;
22904;SDS011;11619;50.140;8.518;2022-08-19T03:06:31;7.38;;;6.70;;
22904;SDS011;11619;50.140;8.518;2022-08-19T03:08:57;8.70;;;7.38;;
22904;SDS011;11619;50.140;8.518;2022-08-19T03:11:25;11.20;;;7.00;;
22904;SDS011;11619;50.140;8.518;2022-08-19T03:13:53;7.57;;;6.72;;
22904;SDS011;11619;50.140;8.518;2022-08-19T03:16:21;10.90;;;7.47;;
22904;SDS011;11619;50.140;8.518;2022-08-19T03:18:49;9.43;;;7.55;;
22904;SDS011;11619;50.140;8.518;2022-08-19T03:21:17;7.75;;;6.75;;
22904;SDS011;11619;50.140;8.518;2022-08-19T03:23:47;8.50;;;6.95;;
22904;SDS011;11619;50.140;8.518;2022-08-19T03:26:14;9.40;;;6.47;;
22904;SDS011;11619;50.140;8.518;2022-08-19T03:28:43;7.53;;;6.40;;
22904;SDS011;11619;50.140;8.518;2022-08-19T03:31:24;7.53;;;6.85;;
22904;SDS011;11619;50.140;8.518;2022-08-19T03:34:12;7.88;;;6.25;;
22904;SDS011;11619;50.140;8.518;2022-08-19T03:36:41;7.30;;;6.25;;
22904;SDS011;11619;50.140;8.518;2022-08-19T03:39:07;9.40;;;6.13;;
22904;SDS011;11619;50.140;8.518;2022-08-19T03:41:36;6.72;;;6.03;;
22904;SDS011;11619;50.140;8.518;2022-08-19T03:44:11;7.13;;;6.40;;
22904;SDS011;11619;50.140;8.518;2022-08-19T03:46:45;8.32;;;5.97;;
22904;SDS011;11619;50.140;8.518;2022-08-19T03:49:13;8.25;;;6.68;;
22904;SDS011;11619;50.140;8.518;2022-08-19T03:51:40;7.43;;;6.18;;
22904;SDS011;11619;50.140;8.518;2022-08-19T03:54:08;7.45;;;6.43;;
22904;SDS011;11619;50.140;8.518;2022-08-19T03:56:37;6.60;;;6.00;;
22904;SDS011;11619;50.140;8.518;2022-08-19T03:59:05;6.45;;;5.85;;
22904;SDS011;11619;50.140;8.518;2022-08-19T04:01:32;5.68;;;5.10;;
22904;SDS011;11619;50.140;8.518;2022-08-19T04:04:01;5.80;;;5.03;;
22904;SDS011;11619;50.140;8.518;2022-08-19T04:06:31;5.15;;;4.78;;
22904;SDS011;11619;50.140;8.518;2022-08-19T04:09:00;5.03;;;4.47;;
22904;SDS011;11619;50.140;8.518;2022-08-19T04:11:30;5.60;;;5.00;;
22904;SDS011;11619;50.140;8.518;2022-08-19T04:14:13;7.13;;;4.50;;
22904;SDS011;11619;50.140;8.518;2022-08-19T04:16:43;4.80;;;4.38;;
22904;SDS011;11619;50.140;8.518;2022-08-19T04:19:10;6.25;;;5.05;;
22904;SDS011;11619;50.140;8.518;2022-08-19T04:21:37;6.45;;;4.65;;
22904;SDS011;11619;50.140;8.518;2022-08-19T04:24:03;5.00;;;4.60;;
22904;SDS011;11619;50.140;8.518;2022-08-19T04:26:31;7.30;;;4.65;;
22904;SDS011;11619;50.140;8.518;2022-08-19T04:29:01;10.70;;;6.30;;
22904;SDS011;11619;50.140;8.518;2022-08-19T04:31:38;7.97;;;6.53;;
22904;SDS011;11619;50.140;8.518;2022-08-19T04:34:06;8.77;;;7.30;;
22904;SDS011;11619;50.140;8.518;2022-08-19T04:36:35;10.00;;;8.32;;
22904;SDS011;11619;50.140;8.518;2022-08-19T04:39:04;8.73;;;7.82;;
22904;SDS011;11619;50.140;8.518;2022-08-19T04:41:42;9.88;;;8.80;;
22904;SDS011;11619;50.140;8.518;2022-08-19T04:44:29;8.70;;;7.78;;
22904;SDS011;11619;50.140;8.518;2022-08-19T04:46:58;8.50;;;7.70;;
22904;SDS011;11619;50.140;8.518;2022-08-19T04:49:26;10.02;;;8.18;;
22904;SDS011;11619;50.140;8.518;2022-08-19T04:51:53;8.45;;;7.68;;
22904;SDS011;11619;50.140;8.518;2022-08-19T04:54:21;9.23;;;8.32;;
22904;SDS011;11619;50.140;8.518;2022-08-19T04:57:04;9.35;;;7.95;;
22904;SDS011;11619;50.140;8.518;2022-08-19T04:59:32;10.05;;;9.05;;
22904;SDS011;11619;50.140;8.518;2022-08-19T05:01:59;8.02;;;7.32;;
22904;SDS011;11619;50.140;8.518;2022-08-19T05:04:25;10.70;;;9.60;;
22904;SDS011;11619;50.140;8.518;2022-08-19T05:06:52;10.43;;;9.20;;
22904;SDS011;11619;50.140;8.518;2022-08-19T05:09:26;9.10;;;8.30;;
22904;SDS011;11619;50.140;8.518;2022-08-19T05:11:53;9.45;;;8.60;;
22904;SDS011;11619;50.140;8.518;2022-08-19T05:14:19;10.32;;;9.27;;
22904;SDS011;11619;50.140;8.518;2022-08-19T05:16:47;9.88;;;8.10;;
22904;SDS011;11619;50.140;8.518;2022-08-19T05:19:13;9.73;;;8.95;;
22904;SDS011;11619;50.140;8.518;2022-08-19T05:21:59;9.05;;;8.15;;
22904;SDS011;11619;50.140;8.518;2022-08-19T05:24:45;11.25;;;10.20;;
22904;SDS011;11619;50.140;8.518;2022-08-19T05:27:31;11.50;;;10.05;;
22904;SDS011;11619;50.140;8.518;2022-08-19T05:29:58;9.70;;;8.80;;
22904;SDS011;11619;50.140;8.518;2022-08-19T05:32:25;11.43;;;10.07;;
22904;SDS011;11619;50.140;8.518;2022-08-19T05:34:51;11.23;;;10.13;;
22904;SDS011;11619;50.140;8.518;2022-08-19T05:37:18;10.88;;;9.88;;
22904;SDS011;11619;50.140;8.518;2022-08-19T05:39:44;11.23;;;10.02;;
22904;SDS011;11619;50.140;8.518;2022-08-19T05:42:16;14.35;;;10.30;;
22904;SDS011;11619;50.140;8.518;2022-08-19T05:44:43;10.65;;;9.60;;
22904;SDS011;11619;50.140;8.518;2022-08-19T05:47:10;9.93;;;9.02;;
22904;SDS011;11619;50.140;8.518;2022-08-19T05:49:38;9.43;;;8.20;;
22904;SDS011;11619;50.140;8.518;2022-08-19T05:52:05;10.30;;;9.40;;
22904;SDS011;11619;50.140;8.518;2022-08-19T05:54:33;12.20;;;9.98;;
22904;SDS011;11619;50.140;8.518;2022-08-19T05:57:00;11.40;;;9.30;;
22904;SDS011;11619;50.140;8.518;2022-08-19T05:59:26;9.30;;;8.50;;
22904;SDS011;11619;50.140;8.518;2022-08-19T06:01:53;11.63;;;9.13;;
22904;SDS011;11619;50.140;8.518;2022-08-19T06:04:23;9.50;;;8.60;;
22904;SDS011;11619;50.140;8.518;2022-08-19T06:06:50;10.32;;;9.32;;
22904;SDS011;11619;50.140;8.518;2022-08-19T06:09:18;9.38;;;8.48;;
22904;SDS011;11619;50.140;8.518;2022-08-19T06:11:46;10.00;;;8.88;;
22904;SDS011;11619;50.140;8.518;2022-08-19T06:16:47;10.32;;;8.23;;
22904;SDS011;11619;50.140;8.518;2022-08-19T06:19:17;9.30;;;8.40;;
22904;SDS011;11619;50.140;8.518;2022-08-19T06:21:46;9.45;;;8.05;;
22904;SDS011;11619;50.140;8.518;2022-08-19T06:24:15;9.32;;;8.23;;
22904;SDS011;11619;50.140;8.518;2022-08-19T06:26:44;5.70;;;5.10;;
22904;SDS011;11619;50.140;8.518;2022-08-19T06:29:14;7.53;;;6.15;;
22904;SDS011;11619;50.140;8.518;2022-08-19T06:31:50;5.47;;;4.00;;
22904;SDS011;11619;50.140;8.518;2022-08-19T06:34:18;4.07;;;3.28;;
22904;SDS011;11619;50.140;8.518;2022-08-19T06:36:47;4.47;;;3.90;;
22904;SDS011;11619;50.140;8.518;2022-08-19T06:39:16;5.03;;;3.67;;
22904;SDS011;11619;50.140;8.518;2022-08-19T06:41:45;3.83;;;3.38;;
22904;SDS011;11619;50.140;8.518;2022-08-19T06:44:20;3.72;;;3.33;;
22904;SDS011;11619;50.140;8.518;2022-08-19T06:46:50;4.80;;;3.25;;
22904;SDS011;11619;50.140;8.518;2022-08-19T06:49:20;5.00;;;3.38;;
22904;SDS011;11619;50.140;8.518;2022-08-19T06:51:48;3.35;;;3.05;;
22904;SDS011;11619;50.140;8.518;2022-08-19T06:54:17;4.70;;;4.30;;
22904;SDS011;11619;50.140;8.518;2022-08-19T06:56:45;9.50;;;8.13;;
22904;SDS011;11619;50.140;8.518;2022-08-19T06:59:13;8.07;;;7.40;;
22904;SDS011;11619;50.140;8.518;2022-08-19T07:01:42;8.10;;;7.43;;
22904;SDS011;11619;50.140;8.518;2022-08-19T07:04:12;7.20;;;6.47;;
22904;SDS011;11619;50.140;8.518;2022-08-19T07:06:40;7.68;;;6.03;;
22904;SDS011;11619;50.140;8.518;2022-08-19T07:09:10;6.03;;;5.53;;
22904;SDS011;11619;50.140;8.518;2022-08-19T07:14:13;5.60;;;4.72;;
22904;SDS011;11619;50.140;8.518;2022-08-19T07:16:45;4.43;;;3.95;;
22904;SDS011;11619;50.140;8.518;2022-08-19T07:19:13;7.25;;;3.67;;
22904;SDS011;11619;50.140;8.518;2022-08-19T07:21:44;3.83;;;3.50;;
22904;SDS011;11619;50.140;8.518;2022-08-19T07:24:15;5.25;;;3.58;;
22904;SDS011;11619;50.140;8.518;2022-08-19T07:26:42;4.40;;;4.00;;
22904;SDS011;11619;50.140;8.518;2022-08-19T07:29:09;4.07;;;3.67;;
22904;SDS011;11619;50.140;8.518;2022-08-19T07:31:38;4.35;;;3.95;;
22904;SDS011;11619;50.140;8.518;2022-08-19T07:34:09;3.90;;;3.45;;
22904;SDS011;11619;50.140;8.518;2022-08-19T07:36:38;4.03;;;3.70;;
22904;SDS011;11619;50.140;8.518;2022-08-19T07:39:17;5.78;;;4.05;;
22904;SDS011;11619;50.140;8.518;2022-08-19T07:41:45;4.78;;;3.75;;
22904;SDS011;11619;50.140;8.518;2022-08-19T07:44:13;4.25;;;3.65;;
22904;SDS011;11619;50.140;8.518;2022-08-19T07:46:44;4.90;;;3.72;;
22904;SDS011;11619;50.140;8.518;2022-08-19T07:49:16;4.22;;;3.35;;
22904;SDS011;11619;50.140;8.518;2022-08-19T07:51:46;5.85;;;4.20;;
22904;SDS011;11619;50.140;8.518;2022-08-19T07:54:14;4.32;;;3.90;;
22904;SDS011;11619;50.140;8.518;2022-08-19T07:56:40;4.13;;;3.63;;
22904;SDS011;11619;50.140;8.518;2022-08-19T07:59:07;3.92;;;3.63;;
22904;SDS011;11619;50.140;8.518;2022-08-19T08:01:35;4.30;;;3.45;;
22904;SDS011;11619;50.140;8.518;2022-08-19T08:04:07;4.25;;;3.88;;
22904;SDS011;11619;50.140;8.518;2022-08-19T08:06:52;6.72;;;4.18;;
22904;SDS011;11619;50.140;8.518;2022-08-19T08:09:38;4.72;;;4.20;;
22904;SDS011;11619;50.140;8.518;2022-08-19T08:12:12;4.43;;;4.03;;
22904;SDS011;11619;50.140;8.518;2022-08-19T08:15:01;4.47;;;3.97;;
22904;SDS011;11619;50.140;8.518;2022-08-19T08:17:33;3.88;;;3.58;;
22904;SDS011;11619;50.140;8.518;2022-08-19T08:20:17;4.65;;;3.90;;
22904;SDS011;11619;50.140;8.518;2022-08-19T08:22:44;4.35;;;3.95;;
22904;SDS011;11619;50.140;8.518;2022-08-19T08:25:30;4.57;;;4.18;;
22904;SDS011;11619;50.140;8.518;2022-08-19T08:27:59;4.28;;;3.88;;
22904;SDS011;11619;50.140;8.518;2022-08-19T08:30:26;4.80;;;4.30;;
22904;SDS011;11619;50.140;8.518;2022-08-19T08:32:57;6.13;;;5.53;;
22904;SDS011;11619;50.140;8.518;2022-08-19T08:35:24;7.03;;;6.30;;
22904;SDS011;11619;50.140;8.518;2022-08-19T08:37:51;7.07;;;6.20;;
22904;SDS011;11619;50.140;8.518;2022-08-19T08:42:58;7.07;;;6.13;;
22904;SDS011;11619;50.140;8.518;2022-08-19T08:45:28;7.00;;;5.70;;
22904;SDS011;11619;50.140;8.518;2022-08-19T08:48:10;6.03;;;5.43;;
22904;SDS011;11619;50.140;8.518;2022-08-19T08:50:49;6.50;;;5.97;;
22904;SDS011;11619;50.140;8.518;2022-08-19T08:53:18;7.25;;;6.55;;
22904;SDS011;11619;50.140;8.518;2022-08-19T08:55:57;6.70;;;6.00;;
22904;SDS011;11619;50.140;8.518;2022-08-19T08:58:29;7.93;;;6.65;;
22904;SDS011;11619;50.140;8.518;2022-08-19T09:01:09;8.20;;;7.28;;
22904;SDS011;11619;50.140;8.518;2022-08-19T09:03:37;13.68;;;7.50;;
22904;SDS011;11619;50.140;8.518;2022-08-19T09:06:16;9.15;;;8.25;;
22904;SDS011;11619;50.140;8.518;2022-08-19T09:09:01;7.82;;;7.13;;
22904;SDS011;11619;50.140;8.518;2022-08-19T09:11:43;10.25;;;6.50;;
22904;SDS011;11619;50.140;8.518;2022-08-19T09:14:27;7.50;;;6.80;;
22904;SDS011;11619;50.140;8.518;2022-08-19T09:17:15;7.88;;;7.18;;
22904;SDS011;11619;50.140;8.518;2022-08-19T09:19:49;9.38;;;8.48;;
22904;SDS011;11619;50.140;8.518;2022-08-19T09:22:16;9.10;;;7.68;;
22904;SDS011;11619;50.140;8.518;2022-08-19T09:24:51;8.80;;;7.13;;
22904;SDS011;11619;50.140;8.518;2022-08-19T09:27:21;7.32;;;6.63;;
22904;SDS011;11619;50.140;8.518;2022-08-19T09:30:10;8.63;;;7.20;;
22904;SDS011;11619;50.140;8.518;2022-08-19T09:32:39;9.73;;;8.63;;
22904;SDS011;11619;50.140;8.518;2022-08-19T09:35:08;9.07;;;8.23;;
22904;SDS011;11619;50.140;8.518;2022-08-19T09:37:35;8.77;;;7.93;;
22904;SDS011;11619;50.140;8.518;2022-08-19T09:40:02;10.02;;;9.00;;
22904;SDS011;11619;50.140;8.518;2022-08-19T09:42:30;11.52;;;8.10;;
22904;SDS011;11619;50.140;8.518;2022-08-19T09:45:00;9.55;;;8.68;;
22904;SDS011;11619;50.140;8.518;2022-08-19T09:47:35;13.30;;;7.72;;
22904;SDS011;11619;50.140;8.518;2022-08-19T09:50:06;9.32;;;7.80;;
22904;SDS011;11619;50.140;8.518;2022-08-19T09:52:34;8.30;;;7.60;;
22904;SDS011;11619;50.140;8.518;2022-08-19T09:55:07;10.05;;;9.15;;
22904;SDS011;11619;50.140;8.518;2022-08-19T09:57:35;10.98;;;9.95;;
22904;SDS011;11619;50.140;8.518;2022-08-19T10:00:03;9.70;;;8.75;;
22904;SDS011;11619;50.140;8.518;2022-08-19T10:02:30;8.80;;;7.82;;
22904;SDS011;11619;50.140;8.518;2022-08-19T10:04:59;7.88;;;7.18;;
22904;SDS011;11619;50.140;8.518;2022-08-19T10:07:51;8.23;;;7.53;;
22904;SDS011;11619;50.140;8.518;2022-08-19T10:10:18;8.48;;;7.65;;
22904;SDS011;11619;50.140;8.518;2022-08-19T10:12:45;8.38;;;7.63;;
22904;SDS011;11619;50.140;8.518;2022-08-19T10:15:14;7.53;;;6.93;;
22904;SDS011;11619;50.140;8.518;2022-08-19T10:17:41;7.63;;;7.05;;
22904;SDS011;11619;50.140;8.518;2022-08-19T10:20:13;9.20;;;8.40;;
22904;SDS011;11619;50.140;8.518;2022-08-19T10:22:39;10.27;;;9.27;;
22904;SDS011;11619;50.140;8.518;2022-08-19T10:25:07;10.25;;;9.35;;
22904;SDS011;11619;50.140;8.518;2022-08-19T10:27:34;10.70;;;9.70;;
22904;SDS011;11619;50.140;8.518;2022-08-19T10:30:00;10.38;;;9.40;;
22904;SDS011;11619;50.140;8.518;2022-08-19T10:32:27;9.10;;;8.25;;
22904;SDS011;11619;50.140;8.518;2022-08-19T10:34:59;11.60;;;10.50;;
22904;SDS011;11619;50.140;8.518;2022-08-19T10:37:26;11.38;;;9.93;;
22904;SDS011;11619;50.140;8.518;2022-08-19T10:39:56;11.48;;;10.48;;
22904;SDS011;11619;50.140;8.518;2022-08-19T10:42:23;11.43;;;10.48;;
22904;SDS011;11619;50.140;8.518;2022-08-19T10:44:49;11.30;;;10.40;;
22904;SDS011;11619;50.140;8.518;2022-08-19T10:47:17;9.75;;;8.93;;
22904;SDS011;11619;50.140;8.518;2022-08-19T10:49:51;9.27;;;8.48;;
22904;SDS011;11619;50.140;8.518;2022-08-19T10:52:38;12.98;;;11.85;;
22904;SDS011;11619;50.140;8.518;2022-08-19T10:55:16;13.40;;;12.30;;
22904;SDS011;11619;50.140;8.518;2022-08-19T10:58:03;12.48;;;11.38;;
22904;SDS011;11619;50.140;8.518;2022-08-19T11:00:30;12.25;;;11.10;;
22904;SDS011;11619;50.140;8.518;2022-08-19T11:02:57;11.63;;;10.65;;
22904;SDS011;11619;50.140;8.518;2022-08-19T11:05:24;12.05;;;10.85;;
22904;SDS011;11619;50.140;8.518;2022-08-19T11:07:50;12.23;;;11.18;;
22904;SDS011;11619;50.140;8.518;2022-08-19T11:10:18;12.70;;;11.63;;
22904;SDS011;11619;50.140;8.518;2022-08-19T11:12:47;13.10;;;11.90;;
22904;SDS011;11619;50.140;8.518;2022-08-19T11:15:14;11.93;;;10.93;;
22904;SDS011;11619;50.140;8.518;2022-08-19T11:17:40;11.30;;;10.20;;
22904;SDS011;11619;50.140;8.518;2022-08-19T11:20:07;11.00;;;10.02;;
22904;SDS011;11619;50.140;8.518;2022-08-19T11:22:34;10.15;;;9.27;;
22904;SDS011;11619;50.140;8.518;2022-08-19T11:25:07;10.88;;;9.88;;
22904;SDS011;11619;50.140;8.518;2022-08-19T11:27:39;10.48;;;9.57;;
22904;SDS011;11619;50.140;8.518;2022-08-19T11:30:08;10.30;;;9.45;;
22904;SDS011;11619;50.140;8.518;2022-08-19T11:32:38;9.10;;;8.40;;
22904;SDS011;11619;50.140;8.518;2022-08-19T11:35:05;9.50;;;8.63;;
22904;SDS011;11619;50.140;8.518;2022-08-19T11:37:32;9.15;;;8.35;;
22904;SDS011;11619;50.140;8.518;2022-08-19T11:40:04;9.57;;;8.63;;
22904;SDS011;11619;50.140;8.518;2022-08-19T11:42:31;9.90;;;8.65;;
22904;SDS011;11619;50.140;8.518;2022-08-19T11:45:16;7.75;;;7.10;;
22904;SDS011;11619;50.140;8.518;2022-08-19T11:47:42;8.73;;;7.40;;
22904;SDS011;11619;50.140;8.518;2022-08-19T11:50:10;7.88;;;7.28;;
22904;SDS011;11619;50.140;8.518;2022-08-19T11:52:36;7.07;;;6.57;;
22904;SDS011;11619;50.140;8.518;2022-08-19T11:55:02;7.35;;;6.75;;
22904;SDS011;11619;50.140;8.518;2022-08-19T11:57:29;7.75;;;6.28;;
22904;SDS011;11619;50.140;8.518;2022-08-19T11:59:55;6.90;;;6.30;;
22904;SDS011;11619;50.140;8.518;2022-08-19T12:02:22;9.73;;;6.75;;
22904;SDS011;11619;50.140;8.518;2022-08-19T12:04:49;8.65;;;6.50;;
22904;SDS011;11619;50.140;8.518;2022-08-19T12:07:15;5.97;;;5.50;;
22904;SDS011;11619;50.140;8.518;2022-08-19T12:09:42;5.00;;;4.60;;
22904;SDS011;11619;50.140;8.518;2022-08-19T12:12:10;5.15;;;4.65;;
22904;SDS011;11619;50.140;8.518;2022-08-19T12:14:37;5.38;;;4.97;;
22904;SDS011;11619;50.140;8.518;2022-08-19T12:17:03;4.65;;;4.32;;
22904;SDS011;11619;50.140;8.518;2022-08-19T12:19:33;5.20;;;4.63;;
22904;SDS011;11619;50.140;8.518;2022-08-19T12:22:00;5.10;;;4.43;;
22904;SDS011;11619;50.140;8.518;2022-08-19T12:24:31;5.72;;;5.13;;
22904;SDS011;11619;50.140;8.518;2022-08-19T12:26:58;4.90;;;4.47;;
22904;SDS011;11619;50.140;8.518;2022-08-19T12:29:28;7.53;;;4.70;;
22904;SDS011;11619;50.140;8.518;2022-08-19T12:31:56;5.13;;;4.65;;
22904;SDS011;11619;50.140;8.518;2022-08-19T12:34:30;4.60;;;4.20;;
22904;SDS011;11619;50.140;8.518;2022-08-19T12:36:58;4.75;;;4.28;;
22904;SDS011;11619;50.140;8.518;2022-08-19T12:39:25;4.60;;;4.25;;
22904;SDS011;11619;50.140;8.518;2022-08-19T12:41:52;4.63;;;4.22;;
22904;SDS011;11619;50.140;8.518;2022-08-19T12:44:20;5.28;;;4.78;;
22904;SDS011;11619;50.140;8.518;2022-08-19T12:46:54;4.55;;;4.15;;
22904;SDS011;11619;50.140;8.518;2022-08-19T12:49:21;5.07;;;4.57;;
22904;SDS011;11619;50.140;8.518;2022-08-19T12:52:08;6.50;;;4.25;;
22904;SDS011;11619;50.140;8.518;2022-08-19T12:54:35;5.32;;;4.38;;
22904;SDS011;11619;50.140;8.518;2022-08-19T12:57:06;4.30;;;4.00;;
22904;SDS011;11619;50.140;8.518;2022-08-19T12:59:34;4.80;;;3.80;;
22904;SDS011;11619;50.140;8.518;2022-08-19T13:02:06;3.97;;;3.67;;
22904;SDS011;11619;50.140;8.518;2022-08-19T13:04:33;3.65;;;3.35;;
22904;SDS011;11619;50.140;8.518;2022-08-19T13:07:05;3.42;;;3.08;;
22904;SDS011;11619;50.140;8.518;2022-08-19T13:09:31;4.10;;;3.25;;
22904;SDS011;11619;50.140;8.518;2022-08-19T13:11:58;3.83;;;3.33;;
22904;SDS011;11619;50.140;8.518;2022-08-19T13:14:26;4.15;;;3.75;;
22904;SDS011;11619;50.140;8.518;2022-08-19T13:16:52;3.85;;;3.53;;
22904;SDS011;11619;50.140;8.518;2022-08-19T13:19:19;3.75;;;3.42;;
22904;SDS011;11619;50.140;8.518;2022-08-19T13:21:49;4.10;;;3.80;;
22904;SDS011;11619;50.140;8.518;2022-08-19T13:24:22;4.18;;;3.85;;
22904;SDS011;11619;50.140;8.518;2022-08-19T13:26:56;3.55;;;3.25;;
22904;SDS011;11619;50.140;8.518;2022-08-19T13:29:23;4.68;;;3.80;;
22904;SDS011;11619;50.140;8.518;2022-08-19T13:32:08;4.05;;;3.28;;
22904;SDS011;11619;50.140;8.518;2022-08-19T13:34:53;4.82;;;3.60;;
22904;SDS011;11619;50.140;8.518;2022-08-19T13:37:19;3.72;;;3.42;;
22904;SDS011;11619;50.140;8.518;2022-08-19T13:40:10;3.42;;;3.15;;
22904;SDS011;11619;50.140;8.518;2022-08-19T13:42:42;3.60;;;3.30;;
22904;SDS011;11619;50.140;8.518;2022-08-19T13:45:10;3.70;;;3.28;;
22904;SDS011;11619;50.140;8.518;2022-08-19T13:47:37;3.50;;;3.20;;
22904;SDS011;11619;50.140;8.518;2022-08-19T13:50:09;3.83;;;3.13;;
22904;SDS011;11619;50.140;8.518;2022-08-19T13:52:39;7.68;;;3.13;;
22904;SDS011;11619;50.140;8.518;2022-08-19T13:55:06;3.80;;;3.50;;
22904;SDS011;11619;50.140;8.518;2022-08-19T13:57:33;3.90;;;3.60;;
22904;SDS011;11619;50.140;8.518;2022-08-19T14:00:00;3.38;;;3.17;;
22904;SDS011;11619;50.140;8.518;2022-08-19T14:02:27;5.10;;;3.10;;
22904;SDS011;11619;50.140;8.518;2022-08-19T14:04:54;4.35;;;3.00;;
22904;SDS011;11619;50.140;8.518;2022-08-19T14:07:20;2.72;;;2.53;;
22904;SDS011;11619;50.140;8.518;2022-08-19T14:09:50;5.03;;;3.08;;
22904;SDS011;11619;50.140;8.518;2022-08-19T14:12:20;3.47;;;3.17;;
22904;SDS011;11619;50.140;8.518;2022-08-19T14:14:54;3.17;;;2.95;;
22904;SDS011;11619;50.140;8.518;2022-08-19T14:17:20;2.90;;;2.70;;
22904;SDS011;11619;50.140;8.518;2022-08-19T14:19:47;3.72;;;3.40;;
22904;SDS011;11619;50.140;8.518;2022-08-19T14:22:14;4.20;;;3.70;;
22904;SDS011;11619;50.140;8.518;2022-08-19T14:24:47;3.58;;;3.20;;
22904;SDS011;11619;50.140;8.518;2022-08-19T14:27:13;4.05;;;3.70;;
22904;SDS011;11619;50.140;8.518;2022-08-19T14:29:40;4.00;;;3.70;;
22904;SDS011;11619;50.140;8.518;2022-08-19T14:32:07;3.47;;;3.17;;
22904;SDS011;11619;50.140;8.518;2022-08-19T14:34:36;4.07;;;2.92;;
22904;SDS011;11619;50.140;8.518;2022-08-19T14:37:03;6.43;;;3.05;;
22904;SDS011;11619;50.140;8.518;2022-08-19T14:39:29;3.28;;;2.92;;
22904;SDS011;11619;50.140;8.518;2022-08-19T14:41:56;4.20;;;3.25;;
22904;SDS011;11619;50.140;8.518;2022-08-19T14:44:25;5.22;;;3.10;;
22904;SDS011;11619;50.140;8.518;2022-08-19T14:46:52;3.50;;;3.20;;
22904;SDS011;11619;50.140;8.518;2022-08-19T14:49:19;3.38;;;3.17;;
22904;SDS011;11619;50.140;8.518;2022-08-19T14:51:57;3.17;;;2.88;;
22904;SDS011;11619;50.140;8.518;2022-08-19T14:54:23;3.42;;;3.13;;
22904;SDS011;11619;50.140;8.518;2022-08-19T14:56:55;3.15;;;2.95;;
22904;SDS011;11619;50.140;8.518;2022-08-19T14:59:21;6.20;;;2.72;;
22904;SDS011;11619;50.140;8.518;2022-08-19T15:01:48;3.42;;;2.60;;
22904;SDS011;11619;50.140;8.518;2022-08-19T15:04:14;2.65;;;2.40;;
22904;SDS011;11619;50.140;8.518;2022-08-19T15:06:41;2.95;;;2.70;;
22904;SDS011;11619;50.140;8.518;2022-08-19T15:09:09;5.05;;;3.20;;
22904;SDS011;11619;50.140;8.518;2022-08-19T15:11:35;3.88;;;3.25;;